sensor_id;sensor_type;location;lat;lon;timestamp;P1;durP1;ratioP1;P2;durP2;ratioP2
67049;SDS011;53955;52.442;13.284;2023-06-26T00:01:44;10.38;;;7.65;;
67049;SDS011;53955;52.442;13.284;2023-06-26T00:04:11;12.82;;;7.80;;
67049;SDS011;53955;52.442;13.284;2023-06-26T00:06:39;8.88;;;7.28;;
67049;SDS011;53955;52.442;13.284;2023-06-26T00:09:06;11.02;;;8.48;;
67049;SDS011;53955;52.442;13.284;2023-06-26T00:11:33;10.75;;;8.50;;
67049;SDS011;53955;52.442;13.284;2023-06-26T00:14:01;10.65;;;7.22;;
67049;SDS011;53955;52.442;13.284;2023-06-26T00:16:27;12.63;;;8.52;;
67049;SDS011;53955;52.442;13.284;2023-06-26T00:18:56;12.48;;;7.55;;
67049;SDS011;53955;52.442;13.284;2023-06-26T00:21:23;10.50;;;7.35;;
67049;SDS011;53955;52.442;13.284;2023-06-26T00:23:50;9.40;;;7.50;;
67049;SDS011;53955;52.442;13.284;2023-06-26T00:26:16;12.32;;;7.60;;
67049;SDS011;53955;52.442;13.284;2023-06-26T00:28:43;10.30;;;7.50;;
67049;SDS011;53955;52.442;13.284;2023-06-26T00:31:11;9.68;;;7.93;;
67049;SDS011;53955;52.442;13.284;2023-06-26T00:33:38;10.55;;;7.90;;
67049;SDS011;53955;52.442;13.284;2023-06-26T00:36:04;11.13;;;8.27;;
67049;SDS011;53955;52.442;13.284;2023-06-26T00:38:31;15.32;;;8.30;;
67049;SDS011;53955;52.442;13.284;2023-06-26T00:40:57;9.68;;;7.82;;
67049;SDS011;53955;52.442;13.284;2023-06-26T00:43:24;9.65;;;7.93;;
67049;SDS011;53955;52.442;13.284;2023-06-26T00:45:51;10.60;;;7.95;;
67049;SDS011;53955;52.442;13.284;2023-06-26T00:48:19;14.95;;;8.27;;
67049;SDS011;53955;52.442;13.284;2023-06-26T00:50:45;10.93;;;8.07;;
67049;SDS011;53955;52.442;13.284;2023-06-26T00:53:12;12.07;;;8.05;;
67049;SDS011;53955;52.442;13.284;2023-06-26T00:55:39;10.88;;;8.32;;
67049;SDS011;53955;52.442;13.284;2023-06-26T00:58:05;11.85;;;7.57;;
67049;SDS011;53955;52.442;13.284;2023-06-26T01:00:32;9.43;;;7.72;;
67049;SDS011;53955;52.442;13.284;2023-06-26T01:02:59;10.98;;;8.07;;
67049;SDS011;53955;52.442;13.284;2023-06-26T01:05:27;11.60;;;7.88;;
67049;SDS011;53955;52.442;13.284;2023-06-26T01:07:55;10.00;;;8.23;;
67049;SDS011;53955;52.442;13.284;2023-06-26T01:10:24;9.70;;;7.90;;
67049;SDS011;53955;52.442;13.284;2023-06-26T01:12:52;9.85;;;7.80;;
67049;SDS011;53955;52.442;13.284;2023-06-26T01:15:19;13.05;;;8.27;;
67049;SDS011;53955;52.442;13.284;2023-06-26T01:17:45;10.65;;;7.95;;
67049;SDS011;53955;52.442;13.284;2023-06-26T01:20:12;11.93;;;7.75;;
67049;SDS011;53955;52.442;13.284;2023-06-26T01:22:45;10.65;;;7.90;;
67049;SDS011;53955;52.442;13.284;2023-06-26T01:25:20;11.88;;;8.30;;
67049;SDS011;53955;52.442;13.284;2023-06-26T01:27:54;10.18;;;8.07;;
67049;SDS011;53955;52.442;13.284;2023-06-26T01:30:22;13.82;;;8.48;;
67049;SDS011;53955;52.442;13.284;2023-06-26T01:32:49;11.88;;;8.27;;
67049;SDS011;53955;52.442;13.284;2023-06-26T01:35:16;10.77;;;8.77;;
67049;SDS011;53955;52.442;13.284;2023-06-26T01:37:43;15.73;;;9.00;;
67049;SDS011;53955;52.442;13.284;2023-06-26T01:40:10;10.73;;;8.25;;
67049;SDS011;53955;52.442;13.284;2023-06-26T01:42:37;9.32;;;7.82;;
67049;SDS011;53955;52.442;13.284;2023-06-26T01:45:07;11.43;;;8.40;;
67049;SDS011;53955;52.442;13.284;2023-06-26T01:47:38;12.45;;;9.05;;
67049;SDS011;53955;52.442;13.284;2023-06-26T01:50:10;15.43;;;9.57;;
67049;SDS011;53955;52.442;13.284;2023-06-26T01:52:40;12.38;;;8.82;;
67049;SDS011;53955;52.442;13.284;2023-06-26T01:55:10;11.10;;;8.80;;
67049;SDS011;53955;52.442;13.284;2023-06-26T01:57:43;12.13;;;8.82;;
67049;SDS011;53955;52.442;13.284;2023-06-26T02:00:14;11.88;;;8.75;;
67049;SDS011;53955;52.442;13.284;2023-06-26T02:02:44;11.15;;;8.93;;
67049;SDS011;53955;52.442;13.284;2023-06-26T02:05:11;12.07;;;9.32;;
67049;SDS011;53955;52.442;13.284;2023-06-26T02:07:38;12.00;;;8.70;;
67049;SDS011;53955;52.442;13.284;2023-06-26T02:10:05;12.40;;;9.18;;
67049;SDS011;53955;52.442;13.284;2023-06-26T02:12:33;14.27;;;9.65;;
67049;SDS011;53955;52.442;13.284;2023-06-26T02:15:00;14.05;;;8.90;;
67049;SDS011;53955;52.442;13.284;2023-06-26T02:17:28;12.52;;;9.38;;
67049;SDS011;53955;52.442;13.284;2023-06-26T02:19:55;12.13;;;9.00;;
67049;SDS011;53955;52.442;13.284;2023-06-26T02:22:21;12.88;;;9.38;;
67049;SDS011;53955;52.442;13.284;2023-06-26T02:24:48;12.60;;;9.80;;
67049;SDS011;53955;52.442;13.284;2023-06-26T02:27:15;14.13;;;9.25;;
67049;SDS011;53955;52.442;13.284;2023-06-26T02:29:41;13.73;;;9.23;;
67049;SDS011;53955;52.442;13.284;2023-06-26T02:32:08;12.95;;;9.52;;
67049;SDS011;53955;52.442;13.284;2023-06-26T02:34:36;11.95;;;9.60;;
67049;SDS011;53955;52.442;13.284;2023-06-26T02:37:03;11.75;;;9.10;;
67049;SDS011;53955;52.442;13.284;2023-06-26T02:39:31;11.68;;;9.45;;
67049;SDS011;53955;52.442;13.284;2023-06-26T02:41:58;10.65;;;8.70;;
67049;SDS011;53955;52.442;13.284;2023-06-26T02:44:24;12.27;;;9.45;;
67049;SDS011;53955;52.442;13.284;2023-06-26T02:46:51;10.75;;;8.65;;
67049;SDS011;53955;52.442;13.284;2023-06-26T02:49:17;12.45;;;9.40;;
67049;SDS011;53955;52.442;13.284;2023-06-26T02:51:45;13.32;;;9.38;;
67049;SDS011;53955;52.442;13.284;2023-06-26T02:54:12;13.15;;;9.65;;
67049;SDS011;53955;52.442;13.284;2023-06-26T02:56:39;10.63;;;9.52;;
67049;SDS011;53955;52.442;13.284;2023-06-26T02:59:05;11.73;;;9.98;;
67049;SDS011;53955;52.442;13.284;2023-06-26T03:01:32;15.85;;;10.30;;
67049;SDS011;53955;52.442;13.284;2023-06-26T03:03:58;13.40;;;10.10;;
67049;SDS011;53955;52.442;13.284;2023-06-26T03:06:25;13.75;;;10.82;;
67049;SDS011;53955;52.442;13.284;2023-06-26T03:08:53;12.90;;;10.48;;
67049;SDS011;53955;52.442;13.284;2023-06-26T03:11:20;12.85;;;10.50;;
67049;SDS011;53955;52.442;13.284;2023-06-26T03:13:46;12.73;;;10.43;;
67049;SDS011;53955;52.442;13.284;2023-06-26T03:16:16;15.60;;;10.90;;
67049;SDS011;53955;52.442;13.284;2023-06-26T03:18:42;12.55;;;10.90;;
67049;SDS011;53955;52.442;13.284;2023-06-26T03:21:09;13.63;;;10.10;;
67049;SDS011;53955;52.442;13.284;2023-06-26T03:23:35;13.00;;;10.45;;
67049;SDS011;53955;52.442;13.284;2023-06-26T03:26:03;13.40;;;10.98;;
67049;SDS011;53955;52.442;13.284;2023-06-26T03:28:30;12.15;;;10.10;;
67049;SDS011;53955;52.442;13.284;2023-06-26T03:30:57;14.80;;;10.63;;
67049;SDS011;53955;52.442;13.284;2023-06-26T03:33:24;12.25;;;9.35;;
67049;SDS011;53955;52.442;13.284;2023-06-26T03:35:51;12.20;;;10.15;;
67049;SDS011;53955;52.442;13.284;2023-06-26T03:38:17;12.52;;;9.57;;
67049;SDS011;53955;52.442;13.284;2023-06-26T03:40:44;12.80;;;10.30;;
67049;SDS011;53955;52.442;13.284;2023-06-26T03:43:12;11.90;;;9.90;;
67049;SDS011;53955;52.442;13.284;2023-06-26T03:45:39;11.68;;;9.60;;
67049;SDS011;53955;52.442;13.284;2023-06-26T03:48:06;12.57;;;9.38;;
67049;SDS011;53955;52.442;13.284;2023-06-26T03:50:33;14.63;;;11.02;;
67049;SDS011;53955;52.442;13.284;2023-06-26T03:52:59;12.95;;;9.77;;
67049;SDS011;53955;52.442;13.284;2023-06-26T03:55:26;13.38;;;9.95;;
67049;SDS011;53955;52.442;13.284;2023-06-26T03:57:53;14.27;;;10.65;;
67049;SDS011;53955;52.442;13.284;2023-06-26T04:00:20;12.35;;;10.30;;
67049;SDS011;53955;52.442;13.284;2023-06-26T04:02:47;12.15;;;10.35;;
67049;SDS011;53955;52.442;13.284;2023-06-26T04:05:16;12.10;;;10.13;;
67049;SDS011;53955;52.442;13.284;2023-06-26T04:07:42;14.18;;;10.75;;
67049;SDS011;53955;52.442;13.284;2023-06-26T04:10:09;11.60;;;9.60;;
67049;SDS011;53955;52.442;13.284;2023-06-26T04:12:35;12.00;;;9.93;;
67049;SDS011;53955;52.442;13.284;2023-06-26T04:15:02;11.40;;;9.30;;
67049;SDS011;53955;52.442;13.284;2023-06-26T04:17:30;14.25;;;10.25;;
67049;SDS011;53955;52.442;13.284;2023-06-26T04:19:57;12.32;;;10.98;;
67049;SDS011;53955;52.442;13.284;2023-06-26T04:22:23;11.85;;;9.82;;
67049;SDS011;53955;52.442;13.284;2023-06-26T04:24:50;12.52;;;9.75;;
67049;SDS011;53955;52.442;13.284;2023-06-26T04:27:17;14.15;;;10.20;;
67049;SDS011;53955;52.442;13.284;2023-06-26T04:29:44;13.40;;;10.57;;
67049;SDS011;53955;52.442;13.284;2023-06-26T04:32:10;13.68;;;10.63;;
67049;SDS011;53955;52.442;13.284;2023-06-26T04:34:38;13.52;;;10.68;;
67049;SDS011;53955;52.442;13.284;2023-06-26T04:37:08;14.48;;;10.93;;
67049;SDS011;53955;52.442;13.284;2023-06-26T04:39:35;12.55;;;10.10;;
67049;SDS011;53955;52.442;13.284;2023-06-26T04:42:03;11.43;;;9.57;;
67049;SDS011;53955;52.442;13.284;2023-06-26T04:44:30;12.05;;;9.70;;
67049;SDS011;53955;52.442;13.284;2023-06-26T04:46:57;14.43;;;10.63;;
67049;SDS011;53955;52.442;13.284;2023-06-26T04:49:23;13.55;;;10.52;;
67049;SDS011;53955;52.442;13.284;2023-06-26T04:51:54;14.20;;;10.45;;
67049;SDS011;53955;52.442;13.284;2023-06-26T04:54:20;13.88;;;10.23;;
67049;SDS011;53955;52.442;13.284;2023-06-26T04:56:47;15.43;;;9.82;;
67049;SDS011;53955;52.442;13.284;2023-06-26T04:59:13;11.55;;;9.80;;
67049;SDS011;53955;52.442;13.284;2023-06-26T05:01:40;12.93;;;8.63;;
67049;SDS011;53955;52.442;13.284;2023-06-26T05:04:07;9.77;;;8.10;;
67049;SDS011;53955;52.442;13.284;2023-06-26T05:06:34;12.13;;;9.30;;
67049;SDS011;53955;52.442;13.284;2023-06-26T05:09:02;10.10;;;8.55;;
67049;SDS011;53955;52.442;13.284;2023-06-26T05:11:28;9.85;;;7.97;;
67049;SDS011;53955;52.442;13.284;2023-06-26T05:13:55;12.20;;;8.32;;
67049;SDS011;53955;52.442;13.284;2023-06-26T05:16:21;11.35;;;8.88;;
67049;SDS011;53955;52.442;13.284;2023-06-26T05:18:48;13.60;;;9.48;;
67049;SDS011;53955;52.442;13.284;2023-06-26T05:21:14;11.75;;;9.40;;
67049;SDS011;53955;52.442;13.284;2023-06-26T05:23:42;11.95;;;8.88;;
67049;SDS011;53955;52.442;13.284;2023-06-26T05:26:11;13.48;;;9.35;;
67049;SDS011;53955;52.442;13.284;2023-06-26T05:28:39;12.00;;;8.90;;
67049;SDS011;53955;52.442;13.284;2023-06-26T05:31:06;12.02;;;9.68;;
67049;SDS011;53955;52.442;13.284;2023-06-26T05:33:34;11.85;;;8.85;;
67049;SDS011;53955;52.442;13.284;2023-06-26T05:36:02;13.35;;;9.43;;
67049;SDS011;53955;52.442;13.284;2023-06-26T05:38:31;12.07;;;9.57;;
67049;SDS011;53955;52.442;13.284;2023-06-26T05:40:58;10.93;;;8.77;;
67049;SDS011;53955;52.442;13.284;2023-06-26T05:43:26;10.70;;;8.43;;
67049;SDS011;53955;52.442;13.284;2023-06-26T05:45:53;10.25;;;7.70;;
67049;SDS011;53955;52.442;13.284;2023-06-26T05:48:19;12.93;;;8.43;;
67049;SDS011;53955;52.442;13.284;2023-06-26T05:50:46;10.77;;;8.10;;
67049;SDS011;53955;52.442;13.284;2023-06-26T05:53:13;9.65;;;7.57;;
67049;SDS011;53955;52.442;13.284;2023-06-26T05:55:40;8.15;;;7.15;;
67049;SDS011;53955;52.442;13.284;2023-06-26T05:58:07;7.68;;;6.30;;
67049;SDS011;53955;52.442;13.284;2023-06-26T06:00:38;7.28;;;6.38;;
67049;SDS011;53955;52.442;13.284;2023-06-26T06:03:05;9.90;;;6.72;;
67049;SDS011;53955;52.442;13.284;2023-06-26T06:05:31;10.35;;;6.80;;
67049;SDS011;53955;52.442;13.284;2023-06-26T06:07:58;7.50;;;6.50;;
67049;SDS011;53955;52.442;13.284;2023-06-26T06:10:25;9.25;;;5.93;;
67049;SDS011;53955;52.442;13.284;2023-06-26T06:12:51;7.72;;;6.28;;
67049;SDS011;53955;52.442;13.284;2023-06-26T06:15:19;8.75;;;6.15;;
67049;SDS011;53955;52.442;13.284;2023-06-26T06:17:47;10.50;;;5.53;;
67049;SDS011;53955;52.442;13.284;2023-06-26T06:20:14;11.90;;;6.07;;
67049;SDS011;53955;52.442;13.284;2023-06-26T06:22:40;8.45;;;6.22;;
67049;SDS011;53955;52.442;13.284;2023-06-26T06:25:07;10.38;;;6.20;;
67049;SDS011;53955;52.442;13.284;2023-06-26T06:27:34;10.40;;;6.00;;
67049;SDS011;53955;52.442;13.284;2023-06-26T06:30:01;9.52;;;6.57;;
67049;SDS011;53955;52.442;13.284;2023-06-26T06:32:27;9.27;;;7.20;;
67049;SDS011;53955;52.442;13.284;2023-06-26T06:34:55;8.13;;;6.78;;
67049;SDS011;53955;52.442;13.284;2023-06-26T06:37:22;11.82;;;7.13;;
67049;SDS011;53955;52.442;13.284;2023-06-26T06:39:49;8.15;;;6.60;;
67049;SDS011;53955;52.442;13.284;2023-06-26T06:42:15;10.63;;;7.20;;
67049;SDS011;53955;52.442;13.284;2023-06-26T06:44:42;10.35;;;6.82;;
67049;SDS011;53955;52.442;13.284;2023-06-26T06:47:08;10.95;;;6.53;;
67049;SDS011;53955;52.442;13.284;2023-06-26T06:49:35;9.20;;;6.43;;
67049;SDS011;53955;52.442;13.284;2023-06-26T06:52:03;7.25;;;5.90;;
67049;SDS011;53955;52.442;13.284;2023-06-26T06:54:30;7.20;;;6.13;;
67049;SDS011;53955;52.442;13.284;2023-06-26T06:56:57;8.82;;;6.15;;
67049;SDS011;53955;52.442;13.284;2023-06-26T06:59:23;8.18;;;6.28;;
67049;SDS011;53955;52.442;13.284;2023-06-26T07:01:50;10.18;;;6.43;;
67049;SDS011;53955;52.442;13.284;2023-06-26T07:04:16;9.00;;;6.68;;
67049;SDS011;53955;52.442;13.284;2023-06-26T07:06:43;8.82;;;6.28;;
67049;SDS011;53955;52.442;13.284;2023-06-26T07:09:11;8.25;;;6.13;;
67049;SDS011;53955;52.442;13.284;2023-06-26T07:11:37;7.10;;;5.47;;
67049;SDS011;53955;52.442;13.284;2023-06-26T07:14:04;11.38;;;5.43;;
67049;SDS011;53955;52.442;13.284;2023-06-26T07:16:30;7.07;;;5.90;;
67049;SDS011;53955;52.442;13.284;2023-06-26T07:18:57;5.75;;;4.82;;
67049;SDS011;53955;52.442;13.284;2023-06-26T07:21:24;8.05;;;5.75;;
67049;SDS011;53955;52.442;13.284;2023-06-26T07:23:50;7.68;;;5.53;;
67049;SDS011;53955;52.442;13.284;2023-06-26T07:26:18;6.63;;;5.30;;
67049;SDS011;53955;52.442;13.284;2023-06-26T07:28:46;9.57;;;5.57;;
67049;SDS011;53955;52.442;13.284;2023-06-26T07:31:14;6.22;;;5.10;;
67049;SDS011;53955;52.442;13.284;2023-06-26T07:33:41;8.48;;;5.85;;
67049;SDS011;53955;52.442;13.284;2023-06-26T07:36:08;7.68;;;5.60;;
67049;SDS011;53955;52.442;13.284;2023-06-26T07:38:34;7.32;;;5.65;;
67049;SDS011;53955;52.442;13.284;2023-06-26T07:41:01;9.20;;;5.85;;
67049;SDS011;53955;52.442;13.284;2023-06-26T07:43:29;7.55;;;6.13;;
67049;SDS011;53955;52.442;13.284;2023-06-26T07:45:56;8.35;;;6.10;;
67049;SDS011;53955;52.442;13.284;2023-06-26T07:48:23;10.82;;;6.72;;
67049;SDS011;53955;52.442;13.284;2023-06-26T07:50:50;8.43;;;6.22;;
67049;SDS011;53955;52.442;13.284;2023-06-26T07:53:16;7.47;;;5.85;;
67049;SDS011;53955;52.442;13.284;2023-06-26T07:55:43;8.02;;;5.65;;
67049;SDS011;53955;52.442;13.284;2023-06-26T07:58:09;6.85;;;5.47;;
67049;SDS011;53955;52.442;13.284;2023-06-26T08:00:37;7.70;;;5.95;;
67049;SDS011;53955;52.442;13.284;2023-06-26T08:03:04;7.75;;;5.93;;
67049;SDS011;53955;52.442;13.284;2023-06-26T08:05:30;7.25;;;5.32;;
67049;SDS011;53955;52.442;13.284;2023-06-26T08:07:57;6.78;;;5.72;;
67049;SDS011;53955;52.442;13.284;2023-06-26T08:10:25;7.95;;;5.55;;
67049;SDS011;53955;52.442;13.284;2023-06-26T08:12:51;9.48;;;5.93;;
67049;SDS011;53955;52.442;13.284;2023-06-26T08:15:18;7.55;;;6.00;;
67049;SDS011;53955;52.442;13.284;2023-06-26T08:17:46;7.75;;;6.07;;
67049;SDS011;53955;52.442;13.284;2023-06-26T08:20:15;8.43;;;5.05;;
67049;SDS011;53955;52.442;13.284;2023-06-26T08:22:42;8.68;;;5.88;;
67049;SDS011;53955;52.442;13.284;2023-06-26T08:25:09;7.03;;;5.35;;
67049;SDS011;53955;52.442;13.284;2023-06-26T08:27:36;7.28;;;5.43;;
67049;SDS011;53955;52.442;13.284;2023-06-26T08:30:02;6.38;;;4.97;;
67049;SDS011;53955;52.442;13.284;2023-06-26T08:32:30;7.28;;;5.57;;
67049;SDS011;53955;52.442;13.284;2023-06-26T08:34:59;6.93;;;5.25;;
67049;SDS011;53955;52.442;13.284;2023-06-26T08:37:25;7.35;;;4.63;;
67049;SDS011;53955;52.442;13.284;2023-06-26T08:39:52;6.10;;;5.00;;
67049;SDS011;53955;52.442;13.284;2023-06-26T08:42:18;6.13;;;5.00;;
67049;SDS011;53955;52.442;13.284;2023-06-26T08:44:45;6.35;;;5.00;;
67049;SDS011;53955;52.442;13.284;2023-06-26T08:47:11;6.45;;;5.13;;
67049;SDS011;53955;52.442;13.284;2023-06-26T08:49:41;7.68;;;4.65;;
67049;SDS011;53955;52.442;13.284;2023-06-26T08:52:16;6.55;;;4.75;;
67049;SDS011;53955;52.442;13.284;2023-06-26T08:54:46;6.72;;;4.18;;
67049;SDS011;53955;52.442;13.284;2023-06-26T08:57:18;5.18;;;3.92;;
67049;SDS011;53955;52.442;13.284;2023-06-26T08:59:46;5.75;;;4.22;;
67049;SDS011;53955;52.442;13.284;2023-06-26T09:02:13;8.93;;;4.88;;
67049;SDS011;53955;52.442;13.284;2023-06-26T09:04:40;5.80;;;4.22;;
67049;SDS011;53955;52.442;13.284;2023-06-26T09:07:07;5.22;;;3.80;;
67049;SDS011;53955;52.442;13.284;2023-06-26T09:09:35;4.53;;;3.33;;
67049;SDS011;53955;52.442;13.284;2023-06-26T09:12:01;5.00;;;3.67;;
67049;SDS011;53955;52.442;13.284;2023-06-26T09:14:28;5.55;;;4.10;;
67049;SDS011;53955;52.442;13.284;2023-06-26T09:16:55;4.65;;;3.60;;
67049;SDS011;53955;52.442;13.284;2023-06-26T09:19:22;7.03;;;3.90;;
67049;SDS011;53955;52.442;13.284;2023-06-26T09:21:49;5.55;;;3.90;;
67049;SDS011;53955;52.442;13.284;2023-06-26T09:24:16;5.25;;;3.67;;
67049;SDS011;53955;52.442;13.284;2023-06-26T09:26:44;6.22;;;3.90;;
67049;SDS011;53955;52.442;13.284;2023-06-26T09:29:11;5.40;;;3.60;;
67049;SDS011;53955;52.442;13.284;2023-06-26T09:31:39;5.72;;;4.00;;
67049;SDS011;53955;52.442;13.284;2023-06-26T09:34:06;5.80;;;3.65;;
67049;SDS011;53955;52.442;13.284;2023-06-26T09:36:33;4.43;;;3.40;;
67049;SDS011;53955;52.442;13.284;2023-06-26T09:39:01;5.53;;;3.13;;
67049;SDS011;53955;52.442;13.284;2023-06-26T09:41:29;5.70;;;3.83;;
67049;SDS011;53955;52.442;13.284;2023-06-26T09:44:00;5.10;;;3.60;;
67049;SDS011;53955;52.442;13.284;2023-06-26T09:46:28;4.15;;;3.08;;
67049;SDS011;53955;52.442;13.284;2023-06-26T09:49:00;5.15;;;3.17;;
67049;SDS011;53955;52.442;13.284;2023-06-26T09:51:29;6.25;;;3.20;;
67049;SDS011;53955;52.442;13.284;2023-06-26T09:53:56;5.88;;;3.70;;
67049;SDS011;53955;52.442;13.284;2023-06-26T09:56:23;5.10;;;3.53;;
67049;SDS011;53955;52.442;13.284;2023-06-26T09:58:50;4.90;;;3.67;;
67049;SDS011;53955;52.442;13.284;2023-06-26T10:01:18;5.47;;;3.35;;
67049;SDS011;53955;52.442;13.284;2023-06-26T10:03:45;4.80;;;3.40;;
67049;SDS011;53955;52.442;13.284;2023-06-26T10:06:12;4.93;;;3.65;;
67049;SDS011;53955;52.442;13.284;2023-06-26T10:08:39;8.77;;;3.80;;
67049;SDS011;53955;52.442;13.284;2023-06-26T10:11:07;7.10;;;3.92;;
67049;SDS011;53955;52.442;13.284;2023-06-26T10:13:38;6.05;;;3.65;;
67049;SDS011;53955;52.442;13.284;2023-06-26T10:16:08;4.78;;;3.30;;
67049;SDS011;53955;52.442;13.284;2023-06-26T10:18:37;5.90;;;3.53;;
67049;SDS011;53955;52.442;13.284;2023-06-26T10:21:06;4.65;;;3.40;;
67049;SDS011;53955;52.442;13.284;2023-06-26T10:23:35;3.63;;;2.80;;
67049;SDS011;53955;52.442;13.284;2023-06-26T10:26:05;4.38;;;3.47;;
67049;SDS011;53955;52.442;13.284;2023-06-26T10:28:32;5.32;;;3.35;;
67049;SDS011;53955;52.442;13.284;2023-06-26T10:31:00;6.30;;;3.65;;
67049;SDS011;53955;52.442;13.284;2023-06-26T10:33:29;4.43;;;3.08;;
67049;SDS011;53955;52.442;13.284;2023-06-26T10:38:50;5.32;;;3.58;;
67049;SDS011;53955;52.442;13.284;2023-06-26T10:41:21;4.78;;;3.08;;
67049;SDS011;53955;52.442;13.284;2023-06-26T10:43:49;4.55;;;3.00;;
67049;SDS011;53955;52.442;13.284;2023-06-26T10:46:17;4.65;;;3.00;;
67049;SDS011;53955;52.442;13.284;2023-06-26T10:48:55;4.18;;;2.97;;
67049;SDS011;53955;52.442;13.284;2023-06-26T10:51:25;6.22;;;3.25;;
67049;SDS011;53955;52.442;13.284;2023-06-26T10:53:53;6.20;;;3.33;;
67049;SDS011;53955;52.442;13.284;2023-06-26T10:56:21;4.57;;;3.50;;
67049;SDS011;53955;52.442;13.284;2023-06-26T10:59:10;4.30;;;3.28;;
67049;SDS011;53955;52.442;13.284;2023-06-26T11:01:40;5.43;;;3.47;;
67049;SDS011;53955;52.442;13.284;2023-06-26T11:04:07;5.47;;;3.80;;
67049;SDS011;53955;52.442;13.284;2023-06-26T11:06:37;5.97;;;3.75;;
67049;SDS011;53955;52.442;13.284;2023-06-26T11:09:08;4.85;;;3.40;;
67049;SDS011;53955;52.442;13.284;2023-06-26T11:11:56;4.43;;;3.08;;
67049;SDS011;53955;52.442;13.284;2023-06-26T11:14:26;4.80;;;3.42;;
67049;SDS011;53955;52.442;13.284;2023-06-26T11:16:55;4.93;;;3.33;;
67049;SDS011;53955;52.442;13.284;2023-06-26T11:19:23;4.80;;;3.53;;
67049;SDS011;53955;52.442;13.284;2023-06-26T11:21:58;5.25;;;3.55;;
67049;SDS011;53955;52.442;13.284;2023-06-26T11:24:27;4.40;;;3.35;;
67049;SDS011;53955;52.442;13.284;2023-06-26T11:26:55;6.85;;;3.50;;
67049;SDS011;53955;52.442;13.284;2023-06-26T11:29:27;6.05;;;3.90;;
67049;SDS011;53955;52.442;13.284;2023-06-26T11:31:58;6.35;;;3.60;;
67049;SDS011;53955;52.442;13.284;2023-06-26T11:34:29;5.85;;;3.63;;
67049;SDS011;53955;52.442;13.284;2023-06-26T11:36:56;4.55;;;3.17;;
67049;SDS011;53955;52.442;13.284;2023-06-26T11:39:27;4.53;;;3.47;;
67049;SDS011;53955;52.442;13.284;2023-06-26T11:41:54;4.90;;;3.85;;
67049;SDS011;53955;52.442;13.284;2023-06-26T11:44:20;6.03;;;3.80;;
67049;SDS011;53955;52.442;13.284;2023-06-26T11:46:47;6.30;;;4.15;;
67049;SDS011;53955;52.442;13.284;2023-06-26T11:49:19;5.43;;;3.90;;
67049;SDS011;53955;52.442;13.284;2023-06-26T11:51:48;5.72;;;3.90;;
67049;SDS011;53955;52.442;13.284;2023-06-26T11:54:14;5.55;;;4.10;;
67049;SDS011;53955;52.442;13.284;2023-06-26T11:56:42;7.82;;;3.88;;
67049;SDS011;53955;52.442;13.284;2023-06-26T11:59:09;6.05;;;4.03;;
67049;SDS011;53955;52.442;13.284;2023-06-26T12:01:38;4.10;;;3.28;;
67049;SDS011;53955;52.442;13.284;2023-06-26T12:04:07;5.88;;;4.30;;
67049;SDS011;53955;52.442;13.284;2023-06-26T12:06:35;5.30;;;3.75;;
67049;SDS011;53955;52.442;13.284;2023-06-26T12:09:04;4.90;;;3.60;;
67049;SDS011;53955;52.442;13.284;2023-06-26T12:11:34;5.63;;;4.05;;
67049;SDS011;53955;52.442;13.284;2023-06-26T12:14:04;5.13;;;3.88;;
67049;SDS011;53955;52.442;13.284;2023-06-26T12:16:32;5.90;;;4.28;;
67049;SDS011;53955;52.442;13.284;2023-06-26T12:19:00;4.85;;;3.67;;
67049;SDS011;53955;52.442;13.284;2023-06-26T12:21:28;5.88;;;4.55;;
67049;SDS011;53955;52.442;13.284;2023-06-26T12:24:00;5.07;;;3.85;;
67049;SDS011;53955;52.442;13.284;2023-06-26T12:26:27;5.93;;;3.92;;
67049;SDS011;53955;52.442;13.284;2023-06-26T12:29:01;6.75;;;4.03;;
67049;SDS011;53955;52.442;13.284;2023-06-26T12:31:29;6.55;;;4.63;;
67049;SDS011;53955;52.442;13.284;2023-06-26T12:33:57;5.00;;;3.85;;
67049;SDS011;53955;52.442;13.284;2023-06-26T12:36:24;7.22;;;4.40;;
67049;SDS011;53955;52.442;13.284;2023-06-26T12:38:52;6.25;;;4.30;;
67049;SDS011;53955;52.442;13.284;2023-06-26T12:41:19;5.72;;;4.43;;
67049;SDS011;53955;52.442;13.284;2023-06-26T12:43:46;7.38;;;4.30;;
67049;SDS011;53955;52.442;13.284;2023-06-26T12:46:12;5.43;;;4.43;;
67049;SDS011;53955;52.442;13.284;2023-06-26T12:48:41;6.05;;;4.70;;
67049;SDS011;53955;52.442;13.284;2023-06-26T12:51:11;6.53;;;4.90;;
67049;SDS011;53955;52.442;13.284;2023-06-26T12:53:39;5.82;;;4.82;;
67049;SDS011;53955;52.442;13.284;2023-06-26T12:56:05;5.93;;;4.38;;
67049;SDS011;53955;52.442;13.284;2023-06-26T12:58:32;7.63;;;4.30;;
67049;SDS011;53955;52.442;13.284;2023-06-26T13:00:59;5.90;;;4.40;;
67049;SDS011;53955;52.442;13.284;2023-06-26T13:03:25;6.10;;;4.32;;
67049;SDS011;53955;52.442;13.284;2023-06-26T13:05:53;6.22;;;4.38;;
67049;SDS011;53955;52.442;13.284;2023-06-26T13:08:20;8.45;;;4.75;;
67049;SDS011;53955;52.442;13.284;2023-06-26T13:10:46;6.28;;;4.80;;
67049;SDS011;53955;52.442;13.284;2023-06-26T13:13:13;6.55;;;4.75;;
67049;SDS011;53955;52.442;13.284;2023-06-26T13:15:39;12.20;;;4.90;;
67049;SDS011;53955;52.442;13.284;2023-06-26T13:18:06;7.47;;;5.35;;
67049;SDS011;53955;52.442;13.284;2023-06-26T13:20:33;6.03;;;4.53;;
67049;SDS011;53955;52.442;13.284;2023-06-26T13:23:00;6.40;;;4.47;;
67049;SDS011;53955;52.442;13.284;2023-06-26T13:25:27;7.55;;;5.13;;
67049;SDS011;53955;52.442;13.284;2023-06-26T13:27:54;5.85;;;4.40;;
67049;SDS011;53955;52.442;13.284;2023-06-26T13:30:21;6.53;;;4.97;;
67049;SDS011;53955;52.442;13.284;2023-06-26T13:32:47;7.00;;;5.13;;
67049;SDS011;53955;52.442;13.284;2023-06-26T13:35:14;5.70;;;4.47;;
67049;SDS011;53955;52.442;13.284;2023-06-26T13:37:41;6.30;;;5.28;;
67049;SDS011;53955;52.442;13.284;2023-06-26T13:40:09;6.75;;;4.90;;
67049;SDS011;53955;52.442;13.284;2023-06-26T13:42:36;5.93;;;4.78;;
67049;SDS011;53955;52.442;13.284;2023-06-26T13:45:03;5.72;;;4.53;;
67049;SDS011;53955;52.442;13.284;2023-06-26T13:47:30;7.00;;;4.75;;
67049;SDS011;53955;52.442;13.284;2023-06-26T13:49:59;6.75;;;4.50;;
67049;SDS011;53955;52.442;13.284;2023-06-26T13:52:26;5.75;;;4.60;;
67049;SDS011;53955;52.442;13.284;2023-06-26T13:54:52;6.65;;;4.40;;
67049;SDS011;53955;52.442;13.284;2023-06-26T13:57:20;6.75;;;4.60;;
67049;SDS011;53955;52.442;13.284;2023-06-26T13:59:47;7.75;;;4.82;;
67049;SDS011;53955;52.442;13.284;2023-06-26T14:02:17;7.18;;;4.95;;
67049;SDS011;53955;52.442;13.284;2023-06-26T14:04:43;6.15;;;4.75;;
67049;SDS011;53955;52.442;13.284;2023-06-26T14:07:10;6.30;;;4.68;;
67049;SDS011;53955;52.442;13.284;2023-06-26T14:09:36;6.20;;;4.13;;
67049;SDS011;53955;52.442;13.284;2023-06-26T14:12:03;7.32;;;5.00;;
67049;SDS011;53955;52.442;13.284;2023-06-26T14:14:32;9.07;;;4.63;;
67049;SDS011;53955;52.442;13.284;2023-06-26T14:16:58;6.55;;;4.72;;
67049;SDS011;53955;52.442;13.284;2023-06-26T14:19:25;14.93;;;4.65;;
67049;SDS011;53955;52.442;13.284;2023-06-26T14:21:52;10.20;;;3.67;;
67049;SDS011;53955;52.442;13.284;2023-06-26T14:24:18;9.93;;;4.15;;
67049;SDS011;53955;52.442;13.284;2023-06-26T14:26:45;8.23;;;5.10;;
67049;SDS011;53955;52.442;13.284;2023-06-26T14:29:12;8.07;;;5.03;;
67049;SDS011;53955;52.442;13.284;2023-06-26T14:31:43;13.70;;;5.93;;
67049;SDS011;53955;52.442;13.284;2023-06-26T14:34:09;9.82;;;5.75;;